Time;durP1;ratioP1;P1;durP2;ratioP2;P2;SDS_P1;SDS_P2;PMS_P1;PMS_P2;Temp;Humidity;BMP_temperature;BMP_pressure;BME280_temperature;BME280_humidity;BME280_pressure;Samples;Min_cycle;Max_cycle;Signal;HPM_P1;HPM_P2
2021/12/28 00:01:41;;;;;;;;;;;5.40;99.90;;;;;;5104665;28;19927;-74
2021/12/28 00:04:08;;;;;;;;;;;5.40;99.90;;;;;;5105314;28;19929;-74
2021/12/28 00:06:34;;;;;;;;;;;5.40;99.90;;;;;;5105424;28;19920;-77
2021/12/28 00:09:02;;;;;;;;;;;5.50;99.90;;;;;;5105755;28;19920;-75
2021/12/28 00:11:29;;;;;;;;;;;5.40;99.90;;;;;;5105400;28;19920;-75
2021/12/28 00:14:01;;;;;;;;;;;5.50;99.90;;;;;;5105127;28;19920;-74
2021/12/28 00:16:34;;;;;;;;;;;5.50;99.90;;;;;;5105292;28;20349;-74
2021/12/28 00:19:01;;;;;;;;;;;5.50;99.90;;;;;;5104925;28;19920;-75
2021/12/28 00:21:28;;;;;;;;;;;5.60;99.90;;;;;;5105315;28;19920;-74
2021/12/28 00:23:55;;;;;;;;;;;5.60;99.90;;;;;;5105030;28;20145;-75
2021/12/28 00:26:24;;;;;;;;;;;5.60;99.90;;;;;;5105192;28;19927;-74
2021/12/28 00:28:51;;;;;;;;;;;5.50;99.90;;;;;;5105159;28;19927;-75
2021/12/28 00:31:18;;;;;;;;;;;5.60;99.90;;;;;;5104901;28;20084;-75
2021/12/28 00:33:45;;;;;;;;;;;5.60;99.90;;;;;;5104406;28;19987;-74
2021/12/28 00:36:12;;;;;;;;;;;5.60;99.90;;;;;;5104991;28;20146;-75
2021/12/28 00:38:38;;;;;;;;;;;5.60;99.90;;;;;;5104764;28;19920;-75
2021/12/28 00:41:05;;;;;;;;;;;5.60;99.90;;;;;;5104729;28;19927;-75
2021/12/28 00:43:34;;;;;;;;;;;5.60;99.90;;;;;;5104427;28;19920;-74
2021/12/28 00:46:01;;;;;;;;;;;5.70;99.90;;;;;;5104410;28;19920;-75
2021/12/28 00:48:27;;;;;;;;;;;5.70;99.90;;;;;;5104864;28;19920;-75
2021/12/28 00:50:54;;;;;;;;;;;5.70;99.90;;;;;;5104894;28;20123;-75
2021/12/28 00:53:20;;;;;;;;;;;5.70;99.90;;;;;;5104365;28;20111;-74
2021/12/28 00:55:47;;;;;;;;;;;5.60;99.90;;;;;;5104336;28;19927;-75
2021/12/28 00:58:14;;;;;;;;;;;5.70;99.90;;;;;;5104490;28;19920;-75
2021/12/28 01:00:42;;;;;;;;;;;5.70;99.90;;;;;;5104381;28;20211;-75
2021/12/28 01:03:09;;;;;;;;;;;5.70;99.90;;;;;;5104729;28;19957;-74
2021/12/28 01:05:36;;;;;;;;;;;5.80;99.90;;;;;;5104172;28;19926;-75
2021/12/28 01:08:04;;;;;;;;;;;5.80;99.90;;;;;;5104252;28;19920;-75
2021/12/28 01:10:46;;;;;;;;;;;5.80;99.90;;;;;;5104184;28;19920;-75
2021/12/28 01:13:13;;;;;;;;;;;5.80;99.90;;;;;;5104051;28;19983;-74
2021/12/28 01:15:42;;;;;;;;;;;5.80;99.90;;;;;;5104060;28;19920;-75
2021/12/28 01:18:08;;;;;;;;;;;5.90;99.90;;;;;;5104242;28;19926;-74
2021/12/28 01:20:35;;;;;;;;;;;5.90;99.90;;;;;;5104068;28;19920;-74
2021/12/28 01:23:03;;;;;;;;;;;5.90;99.90;;;;;;5103992;28;19926;-74
2021/12/28 01:25:29;;;;;;;;;;;6.00;99.90;;;;;;5103641;28;19927;-74
2021/12/28 01:27:56;;;;;;;;;;;5.90;99.90;;;;;;5103796;28;19920;-75
2021/12/28 01:30:24;;;;;;;;;;;6.00;99.90;;;;;;5103985;28;19924;-75
2021/12/28 01:32:53;;;;;;;;;;;6.00;99.90;;;;;;5104043;28;19926;-74
2021/12/28 01:35:20;;;;;;;;;;;5.90;99.90;;;;;;5103728;28;19987;-74
2021/12/28 01:37:47;;;;;;;;;;;5.90;99.90;;;;;;5104000;28;19926;-74
2021/12/28 01:40:16;;;;;;;;;;;5.90;99.90;;;;;;5103666;28;20123;-74
2021/12/28 01:42:59;;;;;;;;;;;5.90;99.90;;;;;;5103306;28;21261;-74
2021/12/28 01:45:32;;;;;;;;;;;5.80;99.90;;;;;;5100996;28;19920;-74
2021/12/28 01:48:00;;;;;;;;;;;5.80;99.90;;;;;;5105069;28;20092;-74
2021/12/28 01:50:27;;;;;;;;;;;5.80;99.90;;;;;;5105031;28;19926;-74
2021/12/28 01:52:54;;;;;;;;;;;5.70;99.90;;;;;;5104584;28;19966;-74
2021/12/28 01:55:21;;;;;;;;;;;5.70;99.90;;;;;;5103476;28;19927;-73
2021/12/28 01:57:47;;;;;;;;;;;5.60;99.90;;;;;;5103726;28;19920;-73
2021/12/28 02:00:14;;;;;;;;;;;5.60;99.90;;;;;;5103510;28;19943;-72
2021/12/28 02:02:41;;;;;;;;;;;5.60;99.90;;;;;;5103524;28;19927;-74
2021/12/28 02:05:09;;;;;;;;;;;5.60;99.90;;;;;;5103092;28;19920;-73
2021/12/28 02:07:36;;;;;;;;;;;5.60;99.90;;;;;;5103612;28;19920;-73
2021/12/28 02:10:03;;;;;;;;;;;5.50;99.90;;;;;;5103384;28;19926;-73
2021/12/28 02:12:30;;;;;;;;;;;5.50;99.90;;;;;;5103271;28;20115;-73
2021/12/28 02:14:57;;;;;;;;;;;5.50;99.90;;;;;;5103192;28;19995;-73
2021/12/28 02:17:24;;;;;;;;;;;5.50;99.90;;;;;;5103451;28;19920;-73
2021/12/28 02:19:50;;;;;;;;;;;5.50;99.90;;;;;;5103128;28;19920;-73
2021/12/28 02:22:18;;;;;;;;;;;5.40;99.90;;;;;;5103493;28;19931;-73
2021/12/28 02:24:45;;;;;;;;;;;5.40;99.90;;;;;;5105342;28;19924;-73
2021/12/28 02:27:12;;;;;;;;;;;5.40;99.90;;;;;;5107440;28;20131;-73
2021/12/28 02:29:38;;;;;;;;;;;5.30;99.90;;;;;;5107406;28;19987;-73
2021/12/28 02:32:05;;;;;;;;;;;5.30;99.90;;;;;;5107655;28;19926;-72
2021/12/28 02:34:32;;;;;;;;;;;5.20;99.90;;;;;;5107174;28;20223;-73
2021/12/28 02:36:58;;;;;;;;;;;5.20;99.90;;;;;;5107413;28;19943;-73
2021/12/28 02:39:26;;;;;;;;;;;5.30;99.90;;;;;;5107186;28;19926;-72
2021/12/28 02:41:53;;;;;;;;;;;5.20;99.90;;;;;;5107167;28;19927;-73
2021/12/28 02:44:19;;;;;;;;;;;5.30;99.90;;;;;;5106668;28;20123;-74
2021/12/28 02:46:46;;;;;;;;;;;5.30;99.90;;;;;;5107016;28;19920;-73
2021/12/28 02:49:13;;;;;;;;;;;5.30;99.90;;;;;;5107178;28;19927;-73
2021/12/28 02:51:39;;;;;;;;;;;5.30;99.90;;;;;;5107129;28;19926;-73
2021/12/28 02:54:06;;;;;;;;;;;5.30;99.90;;;;;;5106456;28;19924;-73
2021/12/28 02:56:34;;;;;;;;;;;5.30;99.90;;;;;;5106812;28;19920;-73
2021/12/28 02:59:01;;;;;;;;;;;5.20;99.90;;;;;;5106763;28;19920;-74
2021/12/28 03:01:29;;;;;;;;;;;5.20;99.90;;;;;;5106715;28;20179;-73
2021/12/28 03:03:58;;;;;;;;;;;5.20;99.90;;;;;;5106472;28;19920;-73
2021/12/28 03:06:25;;;;;;;;;;;5.10;99.90;;;;;;5106689;28;19920;-73
2021/12/28 03:08:53;;;;;;;;;;;5.10;99.90;;;;;;5106589;28;19926;-74
2021/12/28 03:11:20;;;;;;;;;;;5.10;99.90;;;;;;5106608;28;20003;-74
2021/12/28 03:13:50;;;;;;;;;;;5.10;99.90;;;;;;5106072;28;20211;-73
2021/12/28 03:16:17;;;;;;;;;;;5.00;99.90;;;;;;5106358;28;19928;-73
2021/12/28 03:18:43;;;;;;;;;;;5.00;99.90;;;;;;5106482;28;19920;-73
2021/12/28 03:21:11;;;;;;;;;;;5.00;99.90;;;;;;5106427;28;20257;-73
2021/12/28 03:23:39;;;;;;;;;;;4.90;99.90;;;;;;5105988;28;20142;-73
2021/12/28 03:26:07;;;;;;;;;;;4.90;99.90;;;;;;5106237;28;19920;-73
2021/12/28 03:28:34;;;;;;;;;;;4.90;99.90;;;;;;5106230;28;19927;-73
2021/12/28 03:31:03;;;;;;;;;;;4.80;99.90;;;;;;5106426;28;19920;-73
2021/12/28 03:33:31;;;;;;;;;;;4.90;99.90;;;;;;5106146;28;20119;-73
2021/12/28 03:35:58;;;;;;;;;;;4.80;99.90;;;;;;5105013;28;19920;-73
2021/12/28 03:38:24;;;;;;;;;;;4.80;99.90;;;;;;5106254;28;19919;-74
2021/12/28 03:40:51;;;;;;;;;;;4.80;99.90;;;;;;5105746;28;19920;-73
2021/12/28 03:43:18;;;;;;;;;;;4.80;99.90;;;;;;5105857;28;19927;-74
2021/12/28 03:45:45;;;;;;;;;;;4.80;99.90;;;;;;5105492;28;19920;-73
2021/12/28 03:48:14;;;;;;;;;;;4.80;99.90;;;;;;5106016;28;19920;-73
2021/12/28 03:50:40;;;;;;;;;;;4.70;99.90;;;;;;5105803;28;19920;-73
2021/12/28 03:53:07;;;;;;;;;;;4.80;99.90;;;;;;5105560;28;20222;-72
2021/12/28 03:55:34;;;;;;;;;;;4.80;99.90;;;;;;5105270;28;19924;-76
2021/12/28 03:58:02;;;;;;;;;;;4.70;99.90;;;;;;5105665;28;20200;-73
2021/12/28 04:00:30;;;;;;;;;;;4.80;99.90;;;;;;5105795;28;19982;-73
2021/12/28 04:02:56;;;;;;;;;;;4.70;99.90;;;;;;5105502;28;20127;-74
2021/12/28 04:05:24;;;;;;;;;;;4.70;99.90;;;;;;5105205;28;19983;-73
2021/12/28 04:07:51;;;;;;;;;;;4.70;99.90;;;;;;5105384;28;20114;-73
2021/12/28 04:10:19;;;;;;;;;;;4.70;99.90;;;;;;5105235;28;19967;-73
2021/12/28 04:12:46;;;;;;;;;;;4.70;99.90;;;;;;5105487;28;19943;-72
2021/12/28 04:15:15;;;;;;;;;;;4.70;99.90;;;;;;5105179;28;19924;-73
2021/12/28 04:17:42;;;;;;;;;;;4.60;99.90;;;;;;5105314;28;19924;-73
2021/12/28 04:20:10;;;;;;;;;;;4.60;99.90;;;;;;5105284;28;19924;-73
2021/12/28 04:22:38;;;;;;;;;;;4.60;99.90;;;;;;5105065;28;19942;-73
2021/12/28 04:25:05;;;;;;;;;;;4.50;99.90;;;;;;5104845;28;20204;-73
2021/12/28 04:27:32;;;;;;;;;;;4.50;99.90;;;;;;5105079;28;19926;-73
2021/12/28 04:29:59;;;;;;;;;;;4.50;99.90;;;;;;5105170;28;19928;-73
2021/12/28 04:32:25;;;;;;;;;;;4.40;99.90;;;;;;5105002;28;19919;-73
2021/12/28 04:34:52;;;;;;;;;;;4.40;99.90;;;;;;5104655;28;19920;-73
2021/12/28 04:37:18;;;;;;;;;;;4.40;99.90;;;;;;5105318;28;19958;-73
2021/12/28 04:39:46;;;;;;;;;;;4.40;99.90;;;;;;5104966;28;19928;-73
2021/12/28 04:42:13;;;;;;;;;;;4.40;99.90;;;;;;5104805;28;20234;-73
2021/12/28 04:44:39;;;;;;;;;;;4.40;99.90;;;;;;5104386;28;20212;-73
2021/12/28 04:47:06;;;;;;;;;;;4.50;99.90;;;;;;5104558;28;19927;-73
2021/12/28 04:49:33;;;;;;;;;;;4.60;99.90;;;;;;5104531;28;19920;-73
2021/12/28 04:52:01;;;;;;;;;;;4.60;99.90;;;;;;5104496;28;19920;-73
2021/12/28 04:54:27;;;;;;;;;;;4.60;99.90;;;;;;5104252;28;19920;-73
2021/12/28 04:56:55;;;;;;;;;;;4.60;99.90;;;;;;5104642;28;19920;-73
2021/12/28 04:59:22;;;;;;;;;;;4.70;99.90;;;;;;5104655;28;19924;-73
2021/12/28 05:01:49;;;;;;;;;;;4.70;99.90;;;;;;5104491;28;19920;-73
2021/12/28 05:04:15;;;;;;;;;;;4.70;99.90;;;;;;5104005;28;19927;-73
2021/12/28 05:06:42;;;;;;;;;;;4.80;99.90;;;;;;5104420;28;19928;-73
2021/12/28 05:09:09;;;;;;;;;;;4.80;99.90;;;;;;5104338;28;19920;-73
2021/12/28 05:11:37;;;;;;;;;;;4.80;99.90;;;;;;5104359;28;19924;-73
2021/12/28 05:14:05;;;;;;;;;;;4.80;99.90;;;;;;5103916;28;19920;-73
2021/12/28 05:16:33;;;;;;;;;;;4.80;99.90;;;;;;5104249;28;19957;-73
2021/12/28 05:19:00;;;;;;;;;;;4.80;99.90;;;;;;5104013;28;19920;-73
2021/12/28 05:21:27;;;;;;;;;;;4.80;99.90;;;;;;5104177;28;19928;-73
2021/12/28 05:23:54;;;;;;;;;;;4.80;99.90;;;;;;5103733;28;19924;-73
2021/12/28 05:26:20;;;;;;;;;;;4.80;99.90;;;;;;5104143;28;19982;-73
2021/12/28 05:28:47;;;;;;;;;;;4.80;99.90;;;;;;5104391;28;19919;-74
2021/12/28 05:31:15;;;;;;;;;;;4.80;99.90;;;;;;5103929;28;19920;-74
2021/12/28 05:33:42;;;;;;;;;;;4.80;99.90;;;;;;5103584;28;19939;-73
2021/12/28 05:36:09;;;;;;;;;;;4.80;99.90;;;;;;5104456;28;19974;-73
2021/12/28 05:38:35;;;;;;;;;;;4.80;99.90;;;;;;5104040;28;19927;-73
2021/12/28 05:41:03;;;;;;;;;;;4.80;99.90;;;;;;5103797;28;19927;-73
2021/12/28 05:43:29;;;;;;;;;;;4.80;99.90;;;;;;5103750;28;19920;-73
2021/12/28 05:45:56;;;;;;;;;;;4.80;99.90;;;;;;5103396;28;19920;-73
2021/12/28 05:48:24;;;;;;;;;;;4.80;99.90;;;;;;5103810;28;19994;-73
2021/12/28 05:50:51;;;;;;;;;;;4.80;99.90;;;;;;5103918;28;19920;-73
2021/12/28 05:53:17;;;;;;;;;;;4.90;99.90;;;;;;5103456;28;19920;-73
2021/12/28 05:55:44;;;;;;;;;;;4.90;99.90;;;;;;5103423;28;19920;-73
2021/12/28 05:58:11;;;;;;;;;;;4.90;99.90;;;;;;5103397;28;19958;-73
2021/12/28 06:00:38;;;;;;;;;;;4.90;99.90;;;;;;5103121;28;19924;-74
2021/12/28 06:03:05;;;;;;;;;;;4.90;99.90;;;;;;5103731;28;20162;-73
2021/12/28 06:05:33;;;;;;;;;;;4.90;99.90;;;;;;5103314;28;19943;-73
2021/12/28 06:07:59;;;;;;;;;;;4.90;99.90;;;;;;5103513;28;19920;-73
2021/12/28 06:10:26;;;;;;;;;;;4.90;99.90;;;;;;5103520;28;20125;-73
2021/12/28 06:12:53;;;;;;;;;;;5.00;99.90;;;;;;5103426;28;19920;-72
2021/12/28 06:15:19;;;;;;;;;;;5.00;99.90;;;;;;5103051;28;19920;-73
2021/12/28 06:17:46;;;;;;;;;;;5.00;99.90;;;;;;5103654;28;19926;-74
2021/12/28 06:20:13;;;;;;;;;;;4.90;99.90;;;;;;5103309;28;20108;-72
2021/12/28 06:22:41;;;;;;;;;;;5.00;99.90;;;;;;5103152;28;20208;-73
2021/12/28 06:25:08;;;;;;;;;;;5.00;99.90;;;;;;5103042;28;20126;-73
2021/12/28 06:27:34;;;;;;;;;;;5.00;99.90;;;;;;5103166;28;19927;-74
2021/12/28 06:30:01;;;;;;;;;;;5.00;99.90;;;;;;5103032;28;19920;-74
2021/12/28 06:32:27;;;;;;;;;;;5.00;99.90;;;;;;5103365;28;19920;-73
2021/12/28 06:34:54;;;;;;;;;;;5.00;99.90;;;;;;5102952;28;19927;-74
2021/12/28 06:37:21;;;;;;;;;;;5.10;99.90;;;;;;5103300;28;19928;-74
2021/12/28 06:39:48;;;;;;;;;;;5.10;99.90;;;;;;5103297;28;19920;-72
2021/12/28 06:42:15;;;;;;;;;;;5.10;99.90;;;;;;5089941;28;19921;-73
2021/12/28 06:44:45;;;;;;;;;;;5.10;99.90;;;;;;5082485;28;19927;-72
2021/12/28 06:47:11;;;;;;;;;;;5.10;99.90;;;;;;5099848;28;20194;-73
2021/12/28 06:49:38;;;;;;;;;;;5.20;99.90;;;;;;5101243;28;20238;-72
2021/12/28 06:52:06;;;;;;;;;;;5.20;99.90;;;;;;5082711;28;19920;-73
2021/12/28 06:54:36;;;;;;;;;;;5.20;99.90;;;;;;5082375;28;20239;-73
2021/12/28 06:57:07;;;;;;;;;;;5.30;99.90;;;;;;5082769;28;19920;-74
2021/12/28 06:59:33;;;;;;;;;;;5.30;99.90;;;;;;5082926;28;19921;-73
2021/12/28 07:02:00;;;;;;;;;;;5.30;99.90;;;;;;5082634;28;19928;-72
2021/12/28 07:04:27;;;;;;;;;;;5.30;99.90;;;;;;5082382;28;19924;-73
2021/12/28 07:06:53;;;;;;;;;;;5.30;99.90;;;;;;5082738;28;19921;-74
2021/12/28 07:09:20;;;;;;;;;;;5.30;99.90;;;;;;5082536;28;20241;-73
2021/12/28 07:11:46;;;;;;;;;;;5.30;99.90;;;;;;5086476;28;19925;-73
2021/12/28 07:14:14;;;;;;;;;;;5.30;99.90;;;;;;5085918;28;19920;-73
2021/12/28 07:16:41;;;;;;;;;;;5.30;99.90;;;;;;5086500;28;19928;-73
2021/12/28 07:19:10;;;;;;;;;;;5.30;99.90;;;;;;5086382;28;19942;-73
2021/12/28 07:21:36;;;;;;;;;;;5.30;99.90;;;;;;5086069;28;19928;-73
2021/12/28 07:24:03;;;;;;;;;;;5.30;99.90;;;;;;5085635;28;19920;-73
2021/12/28 07:26:30;;;;;;;;;;;5.40;99.90;;;;;;5086384;28;19943;-72
2021/12/28 07:28:56;;;;;;;;;;;5.30;99.90;;;;;;5086060;28;19920;-73
2021/12/28 07:31:24;;;;;;;;;;;5.40;99.90;;;;;;5086595;28;19927;-73
2021/12/28 07:33:51;;;;;;;;;;;5.40;99.90;;;;;;5085766;28;19927;-73
2021/12/28 07:36:18;;;;;;;;;;;5.40;99.90;;;;;;5085630;28;19920;-72
2021/12/28 07:38:44;;;;;;;;;;;5.30;99.90;;;;;;5086382;28;19921;-73
2021/12/28 07:41:11;;;;;;;;;;;5.40;99.90;;;;;;5085703;28;19920;-72
2021/12/28 07:43:37;;;;;;;;;;;5.40;99.90;;;;;;5085558;28;19920;-73
2021/12/28 07:46:04;;;;;;;;;;;5.40;99.90;;;;;;5085723;28;20147;-73
2021/12/28 07:48:32;;;;;;;;;;;5.40;99.90;;;;;;5085608;28;19924;-72
2021/12/28 07:50:59;;;;;;;;;;;5.40;99.90;;;;;;5085467;28;20216;-72
2021/12/28 07:53:25;;;;;;;;;;;5.30;99.90;;;;;;5085617;28;19955;-76
2021/12/28 07:55:52;;;;;;;;;;;5.40;99.90;;;;;;5085453;28;19920;-72
2021/12/28 07:58:19;;;;;;;;;;;5.40;99.90;;;;;;5085468;28;20191;-71
2021/12/28 08:00:45;;;;;;;;;;;5.40;99.90;;;;;;5085870;28;19927;-74
2021/12/28 08:03:12;;;;;;;;;;;5.40;99.90;;;;;;5085420;28;19927;-75
2021/12/28 08:05:40;;;;;;;;;;;5.40;99.90;;;;;;5085552;28;19926;-75
2021/12/28 08:08:06;;;;;;;;;;;5.40;99.90;;;;;;5085648;28;20204;-74
2021/12/28 08:10:33;;;;;;;;;;;5.40;99.90;;;;;;5085307;28;20200;-75
2021/12/28 08:13:00;;;;;;;;;;;5.40;99.90;;;;;;5085222;28;19926;-76
2021/12/28 08:15:27;;;;;;;;;;;5.40;99.90;;;;;;5084804;28;19920;-75
2021/12/28 08:17:54;;;;;;;;;;;5.50;99.90;;;;;;5085135;28;20166;-75
2021/12/28 08:20:20;;;;;;;;;;;5.50;99.90;;;;;;5084980;28;19958;-75
2021/12/28 08:22:49;;;;;;;;;;;5.50;99.90;;;;;;5084321;28;19927;-74
2021/12/28 08:25:16;;;;;;;;;;;5.50;99.90;;;;;;5084774;28;19926;-74
2021/12/28 08:27:43;;;;;;;;;;;5.50;99.90;;;;;;5085592;28;19956;-74
2021/12/28 08:30:11;;;;;;;;;;;5.60;99.90;;;;;;5084709;28;19921;-73
2021/12/28 08:32:37;;;;;;;;;;;5.60;99.90;;;;;;5085002;28;19927;-74
2021/12/28 08:35:05;;;;;;;;;;;5.60;99.90;;;;;;5084722;28;19920;-74
2021/12/28 08:37:31;;;;;;;;;;;5.60;99.90;;;;;;5084801;28;19920;-72
2021/12/28 08:40:00;;;;;;;;;;;5.70;99.90;;;;;;5085379;28;19926;-74
2021/12/28 08:42:26;;;;;;;;;;;5.70;99.90;;;;;;5084688;28;19943;-74
2021/12/28 08:44:53;;;;;;;;;;;5.60;99.90;;;;;;5084322;28;19921;-75
2021/12/28 08:47:22;;;;;;;;;;;5.70;99.90;;;;;;5084573;28;19920;-73
2021/12/28 08:49:48;;;;;;;;;;;5.70;99.90;;;;;;5084757;28;19928;-72
2021/12/28 08:52:15;;;;;;;;;;;5.80;99.90;;;;;;5084832;28;19928;-72
2021/12/28 08:54:42;;;;;;;;;;;5.80;99.90;;;;;;5084179;28;19955;-72
2021/12/28 08:57:09;;;;;;;;;;;5.80;99.90;;;;;;5084397;28;19927;-72
2021/12/28 08:59:36;;;;;;;;;;;5.90;99.90;;;;;;5084383;28;19926;-73
2021/12/28 09:02:03;;;;;;;;;;;5.90;99.90;;;;;;5084096;28;19929;-71
2021/12/28 09:04:29;;;;;;;;;;;5.90;99.90;;;;;;5084160;28;19926;-72
2021/12/28 09:06:56;;;;;;;;;;;6.00;99.90;;;;;;5084226;28;19921;-72
2021/12/28 09:09:23;;;;;;;;;;;6.00;99.90;;;;;;5084183;28;19926;-72
2021/12/28 09:11:49;;;;;;;;;;;6.00;99.90;;;;;;5083962;28;19927;-73
2021/12/28 09:14:18;;;;;;;;;;;6.00;99.90;;;;;;5083647;28;19921;-72
2021/12/28 09:16:44;;;;;;;;;;;6.00;99.90;;;;;;5084430;28;19966;-72
2021/12/28 09:19:11;;;;;;;;;;;6.00;99.90;;;;;;5084291;28;20200;-72
2021/12/28 09:21:38;;;;;;;;;;;6.10;99.90;;;;;;5084051;28;19943;-72
2021/12/28 09:24:04;;;;;;;;;;;6.10;99.90;;;;;;5083573;28;19920;-72
2021/12/28 09:26:31;;;;;;;;;;;6.10;99.90;;;;;;5084541;28;20212;-72
2021/12/28 09:29:01;;;;;;;;;;;6.20;99.90;;;;;;5083668;28;19920;-75
2021/12/28 09:31:29;;;;;;;;;;;6.20;99.90;;;;;;5084388;28;19944;-73
2021/12/28 09:33:55;;;;;;;;;;;6.20;99.90;;;;;;5083808;28;19920;-72
2021/12/28 09:36:22;;;;;;;;;;;6.30;99.90;;;;;;5084044;28;19927;-73
2021/12/28 09:38:49;;;;;;;;;;;6.30;99.90;;;;;;5084265;28;20200;-72
2021/12/28 09:41:16;;;;;;;;;;;6.30;99.90;;;;;;5084796;28;20111;-73
2021/12/28 09:43:42;;;;;;;;;;;6.40;99.90;;;;;;5083732;28;20219;-73
2021/12/28 09:46:09;;;;;;;;;;;6.40;99.90;;;;;;5083608;28;20223;-73
2021/12/28 09:48:37;;;;;;;;;;;6.40;99.90;;;;;;5083696;28;19927;-73
2021/12/28 09:51:04;;;;;;;;;;;6.40;99.90;;;;;;5084048;28;19983;-72
2021/12/28 09:53:31;;;;;;;;;;;6.40;99.90;;;;;;5083737;28;19937;-72
2021/12/28 09:55:58;;;;;;;;;;;6.40;99.90;;;;;;5083729;28;20139;-73
2021/12/28 09:58:24;;;;;;;;;;;6.40;99.90;;;;;;5083323;28;19932;-72
2021/12/28 10:00:51;;;;;;;;;;;6.40;99.90;;;;;;5083663;28;19943;-72
2021/12/28 10:03:18;;;;;;;;;;;6.40;99.90;;;;;;5083733;28;19927;-72
2021/12/28 10:05:46;;;;;;;;;;;6.40;99.90;;;;;;5083678;28;19921;-72
2021/12/28 10:08:13;;;;;;;;;;;6.40;99.90;;;;;;5083840;28;19920;-73
2021/12/28 10:10:41;;;;;;;;;;;6.50;99.90;;;;;;5083207;28;20106;-73
2021/12/28 10:13:09;;;;;;;;;;;6.50;99.90;;;;;;5083584;28;19927;-72
2021/12/28 10:15:36;;;;;;;;;;;6.60;99.90;;;;;;5083381;28;20216;-72
2021/12/28 10:18:04;;;;;;;;;;;6.60;99.90;;;;;;5083455;28;19927;-73
2021/12/28 10:20:32;;;;;;;;;;;6.60;99.90;;;;;;5083606;28;19920;-72
2021/12/28 10:23:02;;;;;;;;;;;6.60;99.90;;;;;;5083425;28;19920;-72
2021/12/28 10:25:30;;;;;;;;;;;6.70;99.90;;;;;;5083088;28;19928;-71
2021/12/28 10:27:59;;;;;;;;;;;6.70;99.90;;;;;;5083633;28;19927;-73
2021/12/28 10:30:26;;;;;;;;;;;6.70;99.90;;;;;;5083311;28;19967;-74
2021/12/28 10:32:54;;;;;;;;;;;6.70;99.90;;;;;;5083385;28;19927;-73
2021/12/28 10:35:21;;;;;;;;;;;6.70;99.90;;;;;;5083324;28;19927;-73
2021/12/28 10:37:50;;;;;;;;;;;6.80;99.90;;;;;;5083057;28;19927;-73
2021/12/28 10:40:22;;;;;;;;;;;6.80;99.90;;;;;;5083189;28;19927;-73
2021/12/28 10:42:51;;;;;;;;;;;6.80;99.90;;;;;;5083303;28;20147;-72
2021/12/28 10:45:18;;;;;;;;;;;6.80;99.90;;;;;;5084718;28;19921;-73
2021/12/28 10:47:45;;;;;;;;;;;6.80;99.90;;;;;;5086811;28;19920;-73
2021/12/28 10:50:24;;;;;;;;;;;6.80;99.90;;;;;;5086928;28;19921;-72
2021/12/28 10:52:59;;;;;;;;;;;6.80;99.90;;;;;;5087153;28;19921;-73
2021/12/28 10:55:28;;;;;;;;;;;6.80;99.90;;;;;;5086549;28;19925;-73
2021/12/28 10:57:56;;;;;;;;;;;6.80;99.90;;;;;;5086984;28;19921;-73
2021/12/28 11:00:25;;;;;;;;;;;6.90;99.90;;;;;;5086526;28;19920;-73
2021/12/28 11:02:53;;;;;;;;;;;6.90;99.90;;;;;;5086325;28;20148;-73
2021/12/28 11:05:34;;;;;;;;;;;6.90;99.90;;;;;;5086557;28;19966;-73
2021/12/28 11:08:01;;;;;;;;;;;6.90;99.90;;;;;;5084118;28;19920;-73
2021/12/28 11:10:29;;;;;;;;;;;6.90;99.90;;;;;;5086393;28;19928;-73
2021/12/28 11:12:57;;;;;;;;;;;6.90;99.90;;;;;;5086234;28;19943;-73
2021/12/28 11:15:24;;;;;;;;;;;6.90;99.90;;;;;;5086576;28;19927;-73
2021/12/28 11:17:51;;;;;;;;;;;6.90;99.90;;;;;;5086457;28;19921;-72
2021/12/28 11:20:17;;;;;;;;;;;6.90;99.90;;;;;;5086674;28;20115;-73
2021/12/28 11:22:59;;;;;;;;;;;6.90;99.90;;;;;;5086163;28;19920;-73
2021/12/28 11:25:27;;;;;;;;;;;6.90;99.90;;;;;;5085711;28;19928;-73
2021/12/28 11:28:13;;;;;;;;;;;6.90;99.90;;;;;;5086276;28;19929;-72
2021/12/28 11:30:40;;;;;;;;;;;7.00;99.90;;;;;;5086180;28;19928;-72
2021/12/28 11:33:07;;;;;;;;;;;7.00;99.90;;;;;;5085880;28;19940;-73
2021/12/28 11:35:34;;;;;;;;;;;7.00;99.90;;;;;;5086031;28;19987;-73
2021/12/28 11:38:01;;;;;;;;;;;7.10;99.90;;;;;;5085739;28;19927;-73
2021/12/28 11:40:27;;;;;;;;;;;7.10;99.90;;;;;;5086020;28;19920;-73
2021/12/28 11:42:55;;;;;;;;;;;7.20;99.90;;;;;;5086004;28;19943;-73
2021/12/28 11:45:23;;;;;;;;;;;7.20;99.90;;;;;;5085707;28;19921;-73
2021/12/28 11:47:49;;;;;;;;;;;7.20;99.90;;;;;;5086217;28;19920;-73
2021/12/28 11:50:16;;;;;;;;;;;7.20;99.90;;;;;;5086622;28;19926;-72
2021/12/28 11:52:43;;;;;;;;;;;7.30;99.90;;;;;;5085523;28;19932;-73
2021/12/28 11:55:10;;;;;;;;;;;7.40;99.90;;;;;;5085592;28;19927;-71
2021/12/28 11:57:36;;;;;;;;;;;7.40;99.90;;;;;;5084668;28;19921;-72
2021/12/28 12:00:05;;;;;;;;;;;7.50;99.90;;;;;;5085581;28;19984;-72
2021/12/28 12:02:37;;;;;;;;;;;7.50;99.90;;;;;;5085219;28;19921;-72
2021/12/28 12:05:12;;;;;;;;;;;7.60;99.90;;;;;;5085126;28;19966;-71
2021/12/28 12:07:39;;;;;;;;;;;7.60;99.90;;;;;;5085713;28;19927;-73
2021/12/28 12:10:13;;;;;;;;;;;7.60;99.90;;;;;;5085359;28;19920;-72
2021/12/28 12:12:51;;;;;;;;;;;7.70;99.90;;;;;;5085308;28;19943;-72
2021/12/28 12:15:18;;;;;;;;;;;7.70;99.90;;;;;;5084843;28;19927;-73
2021/12/28 12:17:47;;;;;;;;;;;7.70;99.90;;;;;;5085304;28;20219;-73
2021/12/28 12:20:24;;;;;;;;;;;7.80;99.90;;;;;;5085188;28;19920;-73
2021/12/28 12:22:51;;;;;;;;;;;7.80;99.90;;;;;;5085006;28;20219;-73
2021/12/28 12:25:20;;;;;;;;;;;7.80;99.90;;;;;;5084805;28;20174;-73
2021/12/28 12:27:47;;;;;;;;;;;7.90;99.90;;;;;;5084835;28;20105;-73
2021/12/28 12:30:33;;;;;;;;;;;7.90;99.90;;;;;;5085156;28;19979;-73
2021/12/28 12:33:05;;;;;;;;;;;7.90;99.90;;;;;;5084864;28;20111;-72
2021/12/28 12:35:32;;;;;;;;;;;7.90;99.90;;;;;;5084498;28;19925;-73
2021/12/28 12:37:59;;;;;;;;;;;8.00;99.90;;;;;;5084788;28;19920;-72
2021/12/28 12:40:41;;;;;;;;;;;8.00;99.90;;;;;;5084793;28;19983;-73
2021/12/28 12:43:11;;;;;;;;;;;8.00;99.90;;;;;;5082513;28;20278;-72
2021/12/28 12:45:57;;;;;;;;;;;8.00;99.90;;;;;;5084409;28;19943;-72
2021/12/28 12:48:31;;;;;;;;;;;8.10;99.90;;;;;;5084884;28;19992;-73
2021/12/28 12:51:13;;;;;;;;;;;8.20;99.90;;;;;;5084592;28;19920;-73
2021/12/28 12:53:43;;;;;;;;;;;8.20;99.90;;;;;;5083157;28;20203;-72
2021/12/28 12:56:13;;;;;;;;;;;8.20;99.90;;;;;;5084445;28;19920;-73
2021/12/28 12:58:40;;;;;;;;;;;8.20;99.90;;;;;;5084645;28;19925;-73
2021/12/28 13:01:06;;;;;;;;;;;8.30;99.90;;;;;;5084325;28;19952;-73
2021/12/28 13:03:34;;;;;;;;;;;8.30;99.90;;;;;;5083764;28;19920;-72
2021/12/28 13:06:01;;;;;;;;;;;8.30;99.90;;;;;;5084069;28;20299;-73
2021/12/28 13:08:28;;;;;;;;;;;8.30;99.90;;;;;;5083918;28;19996;-72
2021/12/28 13:10:54;;;;;;;;;;;8.40;99.90;;;;;;5084224;28;19920;-72
2021/12/28 13:13:21;;;;;;;;;;;8.40;99.90;;;;;;5083951;28;19928;-72
2021/12/28 13:15:47;;;;;;;;;;;8.40;99.90;;;;;;5084088;28;19927;-72
2021/12/28 13:18:14;;;;;;;;;;;8.50;99.90;;;;;;5084146;28;19920;-72
2021/12/28 13:20:46;;;;;;;;;;;8.50;99.90;;;;;;5084055;28;19942;-73
2021/12/28 13:23:13;;;;;;;;;;;8.60;99.90;;;;;;5083922;28;20163;-73
2021/12/28 13:25:42;;;;;;;;;;;8.60;99.90;;;;;;5083686;28;19920;-73
2021/12/28 13:28:09;;;;;;;;;;;8.60;99.90;;;;;;5083807;28;19920;-73
2021/12/28 13:30:37;;;;;;;;;;;8.70;99.90;;;;;;5083442;28;19926;-73
2021/12/28 13:33:05;;;;;;;;;;;8.70;99.90;;;;;;5083599;28;20222;-73
2021/12/28 13:35:33;;;;;;;;;;;8.70;99.90;;;;;;5083278;28;20100;-73
2021/12/28 13:38:01;;;;;;;;;;;8.70;99.90;;;;;;5083781;28;19920;-73
2021/12/28 13:40:29;;;;;;;;;;;8.80;99.90;;;;;;5083501;28;19920;-73
2021/12/28 13:43:04;;;;;;;;;;;8.80;99.90;;;;;;5083356;28;20119;-73
2021/12/28 13:45:32;;;;;;;;;;;8.90;99.90;;;;;;5083447;28;19963;-72
2021/12/28 13:48:01;;;;;;;;;;;8.90;99.90;;;;;;5083423;28;19920;-73
2021/12/28 13:50:28;;;;;;;;;;;8.90;99.90;;;;;;5083560;28;19920;-73
2021/12/28 13:52:56;;;;;;;;;;;8.90;99.90;;;;;;5083670;28;19933;-74
2021/12/28 13:55:29;;;;;;;;;;;9.00;99.90;;;;;;5083314;28;19924;-74
2021/12/28 13:57:56;;;;;;;;;;;9.00;99.90;;;;;;5083380;28;20225;-74
2021/12/28 14:00:24;;;;;;;;;;;9.00;99.90;;;;;;5083587;28;19920;-74
2021/12/28 14:03:00;;;;;;;;;;;9.00;99.90;;;;;;5083352;28;19924;-75
2021/12/28 14:05:27;;;;;;;;;;;9.00;99.90;;;;;;5083042;28;20101;-75
2021/12/28 14:07:53;;;;;;;;;;;9.00;99.90;;;;;;5083390;28;19920;-75
2021/12/28 14:10:20;;;;;;;;;;;9.00;99.90;;;;;;5083273;28;19921;-74
2021/12/28 14:13:05;;;;;;;;;;;9.10;99.90;;;;;;5083471;28;19920;-74
2021/12/28 14:15:44;;;;;;;;;;;9.00;99.90;;;;;;5082884;28;19920;-75
2021/12/28 14:18:21;;;;;;;;;;;9.00;99.90;;;;;;5083060;28;19920;-75
2021/12/28 14:20:47;;;;;;;;;;;9.00;99.90;;;;;;5085637;28;19944;-74
2021/12/28 14:23:14;;;;;;;;;;;9.00;99.90;;;;;;5087440;28;19926;-74
2021/12/28 14:25:41;;;;;;;;;;;9.00;99.90;;;;;;5087063;28;19921;-74
2021/12/28 14:28:08;;;;;;;;;;;9.00;99.90;;;;;;5087646;28;19954;-76
2021/12/28 14:30:35;;;;;;;;;;;9.00;99.90;;;;;;5087296;28;19920;-75
2021/12/28 14:33:02;;;;;;;;;;;9.10;99.90;;;;;;5087455;28;19920;-75
2021/12/28 14:35:28;;;;;;;;;;;9.00;99.90;;;;;;5087202;28;19921;-75